Last 365 Observations

Chair 1 Top

Daily Data | America/Los_Angeles
as of 2/5/23 9:52 PM PST
Date Daily Max Temp (°F) Time of Max Temp Daily Min Temp (°F) Time of Min Temp Temp (°F) Daily Max Wind (mph) Time of Max Wind Max Wind Dir (°) Wind Spd (mph) Dew Pt (°F) Max RH (%) Min RH (%) Max Wet Bulb Temp (°F) Min Wet Bulb Temp (°F) Wet Bulb (°F) WetB Hrs <28F (hrs) Hrs <= 32F (hrs) Min Wind Chill (°F) Wind Chill Time
2/4/23 32.2 1028 21.2 2359 23.3 89.4 2359 NW | 323 45.5 8.8 98 11 24.6 18.6 21.1 23.0 22.9 -7.4 2359
2/3/23 29.8 0021 21.8 1901 24.1 71.2 1817 SW | 222 29.2 5.5 59 19 23.2 18.2 19.6 24.0 24.0 -2.5 1826
2/2/23 32.6 1514 24.6 0448 28.5 55.8 0416 SW | 222 27.7 4.0 47 26 25.4 19.9 22.4 24.0 22.7 3.8 0450
2/1/23 32.9 1431 18.0 0011 24.4 33.5 2232 SSW | 202 - 3.0 47 29 25.7 13.5 19.4 24.0 23.7 2.3 0038
1/31/23 20.1 1433 5.8 0033 17.7 28.0 1259 NE | 42 18.9 -10.7 31 19 15.1 2.8 13.0 23.4 23.4 -15.3 0033
1/30/23 10.9 1232 2.0 0406 5.3 31.5 1733 NNE | 30 17.3 -3.8 92 22 10.6 1.2 4.5 24.0 24.0 -23.3 0706
1/29/23 20.7 0026 3.1 2357 11.8 72.6 0006 SSW | 200 - 7.6 95 26 17.0 3.2 11.0 24.0 24.0 -18.9 2347
1/28/23 29.8 1135 18.2 0022 25.4 83.2 2219 SSW | 213 35.3 -6.0 82 9 22.3 14.5 19.3 24.0 24.0 -5.6 2357
1/27/23 35.8 1102 18.3 2338 29.1 59.5 2104 SSW | 201 25.7 -2.0 56 9 26.7 14.5 22.2 24.0 16.8 -0.9 2104
1/26/23 34.8 2350 9.8 0600 26.1 34.8 0811 NE | 47 16.6 -5.0 98 8 24.6 9.7 19.7 24.0 18.7 -12.9 0607
1/25/23 25.9 0001 16.0 0555 20.6 39.0 1749 NE | 37 16.9 8.4 75 39 20.9 14.0 17.6 24.0 24.0 -1.9 1748
1/24/23 27.8 1333 18.1 0216 23.8 31.2 0023 NE | 38 14.2 -0.1 74 21 21.6 13.1 18.7 24.0 24.0 -0.1 0148
1/23/23 24.2 2048 2.4 0109 12.0 61.4 0949 NE | 55 29.7 -5.2 92 7 16.8 2.5 9.4 24.0 24.0 -31.1 0129
1/22/23 31.2 0022 4.1 2354 14.4 76.5 0427 WSW | 257 29.8 0.9 99 11 23.2 4.2 11.9 - - -25.0 2101
1/21/23 35.0 1522 24.2 0243 29.4 48.5 2251 SW | 234 10.6 -8.8 45 5 26.2 16.9 21.8 24.0 18.0 11.2 2341
1/20/23 26.2 2357 1.0 0536 13.4 34.3 0218 NE | 35 15.1 -1.0 96 5 18.1 1.3 11.3 23.2 23.2 -29.7 0127
1/19/23 16.2 0635 1.0 2236 8.5 97.7 0710 W | 261 26.4 7.2 100 91 16.1 1.3 8.6 23.0 23.0 -31.4 2347
1/18/23 24.6 1119 8.0 0133 17.6 71.5 2325 SW | 230 31.5 17.0 100 93 24.5 8.0 17.4 23.7 23.7 -15.2 2325
1/17/23 10.8 1512 7.5 0449 9.2 30.9 0032 WSW | 249 9.5 7.6 94 92 10.7 7.4 9.1 24.0 24.0 -12.4 0032
1/16/23 20.3 0509 8.0 2235 13.7 95.1 1018 SW | 236 29.9 12.6 98 92 20.1 8.0 13.5 24.0 24.0 -22.0 1736
1/15/23 16.3 0006 10.9 1821 13.3 103.7 0939 WSW | 248 26.8 12.2 97 94 16.1 10.8 13.1 24.0 24.0 -21.6 0939
1/14/23 21.4 1438 15.0 2103 19.3 83.0 1602 W | 265 22.6 18.8 99 96 21.2 14.8 19.1 24.0 24.0 -10.6 2045
1/13/23 29.8 0530 20.0 1616 24.2 74.7 2355 SW | 226 17.4 23.7 100 89 29.0 19.8 23.9 22.6 24.0 -5.6 2352
1/12/23 31.2 1424 27.4 0703 29.1 56.7 2053 SW | 216 15.8 29.1 100 100 31.1 27.3 29.0 4.5 24.0 8.2 2239
1/11/23 29.6 2358 10.8 0356 20.4 105.3 0432 SSW | 211 40.2 19.9 100 94 29.4 10.6 20.2 22.0 24.0 -23.7 0427
1/10/23 24.1 0041 12.1 2324 16.9 128.5 0715 W | 267 29.3 16.2 100 95 24.0 11.9 16.7 - - -19.9 2320
1/9/23 29.4 1148 19.9 0148 24.9 109.5 1153 W | 263 32.7 24.8 100 98 29.3 19.6 24.8 22.4 23.3 -5.8 0212
1/8/23 23.8 1822 15.7 0329 20.5 94.0 2034 SW | 222 22.4 20.0 100 94 23.6 15.5 20.3 24.0 24.0 -11.1 0058
1/7/23 22.8 1708 16.3 0704 18.2 97.6 1817 SW | 215 25.2 15.6 98 47 19.8 16.0 17.5 24.0 24.0 -12.4 0702
1/6/23 26.5 1418 11.8 0314 19.2 89.9 0008 SW | 223 - 18.6 100 94 26.4 11.6 19.0 24.0 24.0 -17.4 0119
1/5/23 23.6 0117 14.6 2359 19.3 79.2 1007 SW | 234 23.6 18.6 100 95 23.5 14.3 19.0 24.0 24.0 -15.0 2354
1/4/23 24.7 0904 20.3 0747 23.0 89.0 1712 SW | 219 19.4 22.7 100 97 24.6 20.1 22.8 24.0 24.0 -2.7 0057
1/3/23 21.2 2319 14.7 0744 16.7 99.5 0224 SSW | 213 43.2 15.8 98 95 20.9 14.4 16.5 24.0 24.0 -14.7 0045
1/2/23 16.6 1749 5.1 0335 10.7 100.6 1514 SSW | 208 - 9.2 96 90 16.3 5.1 10.6 24.0 24.0 -23.6 1143
1/1/23 18.4 0001 7.5 2359 12.0 42.6 0909 WNW | 303 17.9 10.6 96 92 18.2 7.4 11.8 24.0 24.0 -16.2 1819
12/31/22 30.0 0155 18.4 2359 26.4 79.8 0918 SSW | 211 20.5 26.3 100 96 29.9 18.1 26.2 17.3 24.0 0.7 1634
12/30/22 31.2 1247 23.3 0029 30.2 106.5 0502 SSW | 208 28.8 30.1 100 98 31.1 23.0 30.1 7.9 23.2 -3.5 0045
12/29/22 25.8 1010 14.7 0300 22.0 97.0 0301 SSW | 196 47.2 21.4 100 94 25.6 14.4 21.8 24.0 24.0 -16.6 0300
12/28/22 22.2 0001 14.4 0828 17.5 77.8 0221 SSW | 195 39.3 16.4 98 94 21.9 14.1 17.2 24.0 24.0 -12.9 0806
12/27/22 27.9 0053 22.1 2121 25.0 98.5 0028 S | 170 26.3 24.6 100 97 27.7 21.8 24.7 24.0 24.0 -2.5 2106
12/26/22 42.3 1103 25.3 2236 36.1 103.4 2216 S | 188 30.3 17.9 99 31 33.6 24.9 30.0 6.3 4.8 -0.4 2231
12/25/22 50.1 1155 35.8 0226 40.9 51.5 2234 SSW | 204 - 17.5 46 29 38.4 29.1 32.8 0.0 0.0 25.2 2359
12/24/22 47.9 1333 32.5 0017 39.8 27.8 1554 SSW | 196 7.2 11.4 46 22 36.6 26.8 30.9 3.6 0.0 22.0 0021
12/23/22 41.5 1524 26.1 0146 33.9 71.3 0359 S | 183 24.4 12.9 81 17 32.0 22.4 27.6 11.4 8.7 4.6 0358
12/22/22 38.1 0403 28.1 2346 34.4 54.1 2238 SW | 221 26.4 3.2 47 13 28.9 23.0 26.3 22.1 6.0 9.8 2348
12/21/22 37.1 1232 22.5 0430 31.0 57.0 1546 S | 170 17.5 10.5 70 20 30.0 19.9 25.3 22.5 9.0 8.8 0515
12/20/22 27.6 1336 20.9 0404 23.9 64.6 0602 SSW | 207 - 8.8 82 28 23.8 15.8 20.2 24.0 24.0 -2.5 0536
12/19/22 30.4 1118 22.4 2357 26.1 59.8 2152 SW | 235 21.6 -6.6 37 12 22.6 17.1 19.5 24.0 24.0 -0.4 2152
12/18/22 29.1 0255 21.8 2046 25.2 50.6 0420 SSW | 204 28.7 -3.3 48 13 21.7 17.2 19.3 24.0 24.0 3.1 0402
12/17/22 30.9 1337 23.0 1720 26.8 42.9 1117 S | 183 13.0 -4.5 38 16 23.6 17.9 20.2 24.0 24.0 7.9 0910
12/16/22 32.5 1345 22.4 0306 26.6 37.9 1657 SSW | 192 10.2 -7.6 49 11 24.7 16.0 19.9 24.0 23.8 8.2 2312
12/15/22 29.0 1400 21.6 0320 25.0 25.3 0854 NE | 49 7.7 -4.5 84 10 24.0 16.5 19.3 24.0 24.0 7.2 0854
12/14/22 32.5 1423 15.3 0009 26.2 28.2 0350 NE | 44 8.8 5.0 78 15 27.2 13.7 21.3 24.0 23.6 1.4 0350
12/13/22 21.8 1249 7.3 0523 13.6 22.1 0935 E | 86 8.1 11.8 99 75 21.6 7.3 13.2 24.0 24.0 -12.5 0509
12/12/22 14.0 1056 6.6 0230 9.6 44.5 1255 SSW | 203 12.7 7.8 95 91 13.7 6.6 9.4 24.0 24.0 -20.6 0003
12/11/22 32.0 0101 0.0 0000 8.8 121.7 0547 SW | 232 30.1 7.1 100 3 21.9 0.0 8.7 21.1 21.1 -26.7 1637
12/10/22 23.9 1953 16.6 0750 20.7 92.8 2216 SSE | 157 22.5 19.0 98 21 23.6 15.2 20.2 23.3 23.3 -7.0 0734
12/9/22 21.4 2347 13.0 0338 17.9 85.9 0828 SSW | 204 36.5 8.7 97 25 18.5 12.5 15.9 24.0 24.0 -17.2 0324
12/8/22 16.8 1233 11.5 0627 14.4 66.6 2032 S | 184 28.6 9.3 95 45 16.3 11.3 13.3 - - -13.0 0558
12/7/22 17.3 1127 10.1 2128 13.7 53.8 1452 SSW | 210 16.7 12.2 96 91 17.0 9.8 13.4 24.0 24.0 -12.5 2357
12/6/22 20.4 1228 9.1 0632 14.0 49.7 0035 SW | 218 - 12.6 98 91 20.1 8.9 13.7 24.0 24.0 -16.5 0627
12/5/22 20.6 0008 13.5 2230 17.9 68.3 1414 WSW | 244 21.2 16.8 97 93 20.3 13.2 17.5 24.0 24.0 -11.7 2330
12/4/22 26.4 0614 19.9 1503 22.8 65.7 1038 W | 272 16.6 22.3 100 96 26.2 19.5 22.5 24.0 24.0 -3.4 2010
12/3/22 29.2 1531 20.0 0032 25.2 40.4 0051 SSW | 200 - 23.2 100 20 29.1 16.3 24.6 21.8 24.0 -0.6 0018
12/2/22 30.4 1139 11.8 0442 22.8 97.2 0001 W | 265 22.0 -6.0 97 8 22.5 11.5 17.5 23.2 23.2 -17.8 0441
12/1/22 20.0 0035 15.8 0544 18.3 103.2 2329 SW | 214 20.1 15.4 96 65 19.2 15.4 17.5 24.0 24.0 -15.0 2329
11/30/22 27.4 1050 18.3 2234 23.0 61.7 2151 S | 187 19.3 4.1 88 18 21.6 16.8 18.8 24.0 24.0 -6.8 2151
11/29/22 36.5 1327 20.1 0019 28.8 83.2 0130 SW | 222 28.2 -6.3 33 11 26.6 14.2 21.5 24.0 21.1 -5.4 0036
11/28/22 27.7 0004 16.0 2027 19.1 100.2 1305 SSW | 200 61.0 7.2 97 12 21.5 13.6 16.7 23.6 23.6 -10.5 1904
11/27/22 36.1 1044 27.6 2316 31.8 71.9 2113 SW | 214 35.5 -8.4 40 6 26.7 19.7 23.3 24.0 13.2 6.1 2320
11/26/22 36.2 1408 24.6 1932 31.3 49.3 0231 SSW | 198 19.9 2.9 80 4 29.3 19.4 24.7 22.0 11.5 10.9 1927
11/25/22 41.5 1357 33.9 0001 37.9 55.6 2228 SSW | 198 32.4 6.8 38 18 32.1 25.9 29.0 4.7 0.0 17.4 2343
11/24/22 38.4 2350 30.0 0253 34.0 25.4 1049 NE | 46 10.8 -7.1 24 7 28.4 21.4 24.9 23.8 3.9 17.6 0638
11/23/22 37.9 0324 29.0 2233 33.3 24.5 2210 ENE | 62 10.8 -2.9 56 5 29.5 21.9 25.0 21.8 6.1 15.5 2210
11/22/22 42.0 1140 28.4 0417 34.5 20.1 1523 SSW | 200 6.5 -0.5 54 6 31.4 20.8 26.0 17.8 6.2 17.6 0405
11/21/22 39.6 1252 27.3 0101 32.3 31.6 0825 S | 180 - -13.6 24 7 28.4 19.7 23.1 23.9 14.4 12.0 0521
11/20/22 38.0 1242 27.3 0252 32.0 33.3 0432 S | 191 10.8 -11.3 23 7 27.7 20.1 23.1 24.0 15.3 11.8 0356
11/19/22 32.7 2319 15.6 0551 23.7 27.3 2352 S | 189 9.4 -14.5 34 7 23.1 11.4 17.1 24.0 23.5 -2.6 0544
11/18/22 29.1 0029 12.2 2054 20.8 25.5 1319 NNE | 33 9.4 3.5 94 19 22.4 11.4 17.1 24.0 24.0 -5.2 2049
11/17/22 41.5 1120 25.0 0001 33.2 44.7 1536 SSW | 205 16.0 -0.2 46 10 30.1 18.5 25.0 19.9 11.2 12.2 2333
11/16/22 32.9 1434 18.8 0143 26.2 26.3 0049 NNE | 26 10.3 -8.9 44 11 24.6 14.8 19.4 24.0 23.5 1.6 0143
11/15/22 23.0 2329 12.4 0622 18.3 29.7 2339 NNE | 28 13.3 7.3 96 24 18.9 12.1 15.8 - - -6.1 0633
11/14/22 32.9 1224 17.6 2026 24.9 44.7 1004 SSW | 197 13.0 2.5 72 22 25.6 15.2 19.7 24.0 23.0 4.4 2340
11/13/22 23.9 2154 10.2 0818 15.6 39.8 0009 SW | 219 14.9 3.9 94 25 18.3 10.0 13.3 24.0 24.0 -16.9 0613
11/12/22 23.3 1219 13.8 2124 18.8 62.4 0135 SSE | 160 26.8 9.1 97 36 19.4 13.5 16.5 24.0 24.0 -12.4 2114
11/11/22 26.0 1216 16.3 0001 21.3 64.9 2254 SW | 216 24.3 20.1 99 74 25.8 16.0 20.9 24.0 24.0 -3.0 2339
11/10/22 24.8 1411 8.3 0020 14.4 32.4 0230 SSW | 192 10.2 13.1 100 91 24.7 8.1 14.2 24.0 24.0 -13.9 0230
11/9/22 16.4 1406 8.5 2357 12.2 75.9 1002 SW | 235 - 10.6 96 91 16.2 8.4 12.0 24.0 24.0 -17.1 1001
11/8/22 21.6 1113 11.6 2040 15.6 82.9 1941 WSW | 255 20.1 14.4 98 93 21.4 11.4 15.4 24.0 24.0 -20.4 1944
11/7/22 28.6 0049 12.2 2100 21.6 80.1 0905 E | 86 18.9 21.0 100 93 28.5 12.0 21.3 22.8 24.0 -14.6 2028
11/6/22 31.0 1336 27.1 2143 29.7 64.9 1746 W | 269 17.1 29.7 100 100 30.9 26.9 29.6 3.6 24.0 5.9 2125
11/5/22 41.1 0101 29.2 0047 34.8 77.0 1249 SW | 220 40.6 18.2 100 19 34.1 27.2 29.8 4.1 5.4 9.0 2045
11/4/22 42.8 2312 27.3 0653 35.2 44.4 0054 WSW | 253 14.3 15.7 94 15 32.0 23.2 29.1 8.2 8.3 12.6 0128
11/3/22 27.9 0058 8.5 0657 12.5 32.1 2344 NNE | 27 8.6 7.4 92 10 23.2 8.3 11.6 24.0 24.0 -7.0 0632
11/2/22 14.4 1626 11.8 2046 13.5 72.6 0606 W | 259 18.2 11.6 94 91 14.1 11.5 13.1 24.0 24.0 -15.9 0606
11/1/22 31.2 0101 13.7 0055 24.4 61.5 1954 W | 272 19.3 12.9 95 42 25.4 13.3 21.2 24.0 24.0 -12.8 2239
10/31/22 42.7 0941 31.0 0054 37.6 48.9 1337 S | 175 20.1 10.2 43 10 32.4 25.3 29.4 5.6 1.3 15.5 0040
10/30/22 44.2 1544 29.8 0431 37.4 19.7 1252 NNE | 26 6.6 9.6 66 19 32.8 25.5 29.2 7.4 3.4 21.2 0431
10/29/22 45.5 1440 29.1 0441 35.1 17.7 0840 NE | 48 6.0 10.0 56 25 34.6 23.5 27.7 15.5 8.6 18.5 0714
10/28/22 40.1 1416 29.7 0739 33.8 55.3 1002 SSW | 211 12.1 12.8 56 32 31.9 24.4 27.5 14.9 7.8 11.1 0757
10/27/22 38.2 1359 26.2 0637 31.9 50.9 0004 SSW | 213 7.9 10.8 72 28 30.3 21.3 25.9 19.1 10.8 11.5 0137
10/26/22 35.6 1437 25.9 2304 30.5 65.3 0642 SW | 229 31.2 -0.9 72 7 28.7 20.2 23.8 23.2 17.6 8.0 0642
10/25/22 40.1 1259 27.7 2310 34.6 62.1 1532 SSW | 201 32.0 14.3 80 7 33.6 21.0 28.6 8.0 7.1 7.2 2304
10/24/22 44.0 1419 23.8 0122 37.8 51.9 2325 SW | 219 15.2 7.2 55 3 34.5 16.8 29.4 7.8 2.0 12.0 0101
10/23/22 25.6 1441 15.1 2301 19.4 68.2 0532 SSW | 201 17.2 13.0 97 6 23.1 13.8 17.8 24.0 24.0 -9.8 0621
10/22/22 38.2 0101 16.4 0057 24.1 115.8 1553 SW | 236 26.0 23.3 100 38 30.6 16.0 23.7 9.3 15.5 -1.2 1807
10/21/22 51.8 1235 36.2 0006 43.0 82.9 2122 WSW | 250 20.7 21.0 64 17 39.0 30.6 34.9 0.0 0.0 19.0 2308
10/20/22 53.4 1407 38.8 0616 44.2 32.9 1857 S | 179 - 14.8 52 16 39.1 30.3 34.2 0.0 0.0 33.1 1909
10/19/22 50.9 1507 41.0 0548 45.2 27.2 1126 ENE | 62 10.3 14.5 36 20 37.6 32.7 34.6 0.0 0.0 34.5 0730
10/18/22 50.4 1505 38.6 0641 44.7 28.3 1557 E | 80 10.5 16.9 42 24 38.0 31.2 34.9 0.0 0.0 32.0 0224
10/17/22 53.8 1429 39.7 0514 45.4 36.0 1720 SW | 223 9.2 15.5 43 23 40.1 30.6 35.0 0.0 0.0 32.1 0057
10/16/22 56.8 1403 40.8 0512 47.0 31.9 1642 SW | 216 - 12.6 54 15 42.3 30.9 35.4 0.0 0.0 39.0 0656
10/15/22 53.6 1423 41.2 0504 46.9 22.1 1310 ENE | 59 5.1 10.8 30 15 38.2 31.7 34.9 0.0 0.0 38.9 0515
10/14/22 54.2 1504 41.6 0653 47.3 27.4 1151 ENE | 74 7.9 12.3 36 13 39.6 32.6 35.4 0.0 0.0 34.7 0607
10/13/22 54.1 1411 41.6 0532 46.8 24.9 1434 NE | 50 8.4 15.8 36 20 39.7 32.9 35.8 0.0 0.0 36.0 0345
10/12/22 54.4 1459 41.4 0355 46.8 24.6 1501 E | 79 6.8 15.7 37 18 39.7 33.0 35.8 0.0 0.0 35.8 0246
10/11/22 52.7 1244 40.3 0203 46.6 22.1 1249 ENE | 59 4.1 19.1 45 23 40.3 33.2 36.4 0.0 0.0 38.0 0043
10/10/22 52.8 1241 39.7 0652 44.4 40.7 1417 SE | 128 - 23.8 60 25 40.6 33.6 36.5 0.0 0.0 30.0 1926
10/9/22 54.4 1442 42.9 2107 47.6 34.1 1742 SW | 225 - 19.7 51 24 41.0 33.3 37.2 0.0 0.0 34.9 2028
10/8/22 58.1 1323 43.5 0503 49.4 38.7 1558 WSW | 256 - 18.0 44 18 42.3 33.6 37.7 0.0 0.0 39.2 1943
10/7/22 56.0 1446 42.6 0640 49.2 23.0 1816 S | 179 - 18.5 43 17 41.8 34.2 37.6 0.0 0.0 42.6 0640
10/6/22 60.4 1446 43.2 0333 49.7 41.0 1816 SW | 215 - 22.0 50 17 43.6 34.8 38.8 0.0 0.0 38.6 2000
10/5/22 59.1 1322 42.0 0650 49.8 43.6 1759 SSW | 208 - 23.6 48 23 43.7 34.7 39.2 0.0 0.0 39.8 1858
10/4/22 59.8 1413 42.9 0105 50.7 50.5 0530 SW | 228 19.5 22.8 45 19 43.9 34.4 39.5 0.0 0.0 35.4 0617
10/3/22 56.0 1308 39.6 0646 47.8 19.5 1924 NNE | 30 4.7 21.6 54 18 41.1 33.9 37.7 0.0 0.0 38.3 0403
10/2/22 56.4 1305 43.5 0042 48.9 50.0 0324 SW | 220 22.4 20.6 51 18 42.5 34.3 38.1 0.0 0.0 32.4 0318
10/1/22 56.6 1410 42.7 0244 49.3 49.8 1613 WSW | 240 - 22.4 50 22 42.2 35.0 38.7 0.0 0.0 34.6 0052
9/30/22 61.1 1441 43.6 0051 52.4 34.8 1559 SSW | 212 11.2 19.4 47 12 43.7 35.2 39.6 0.0 0.0 38.9 0103
9/29/22 56.5 1429 44.7 0442 51.0 73.2 0859 S | 184 30.3 23.2 49 19 42.5 36.4 39.8 0.0 0.0 32.0 0720
9/28/22 55.3 1210 45.8 0059 48.9 46.9 1207 SSE | 149 - 26.7 49 28 42.4 37.9 39.7 0.0 0.0 39.1 0306
9/27/22 57.9 1230 48.1 0037 52.3 41.8 1740 SE | 133 11.7 29.0 58 29 44.6 38.9 42.2 0.0 0.0 40.4 0049
9/26/22 63.2 1320 49.4 0324 55.0 26.1 1529 SE | 131 7.3 33.0 62 25 47.0 42.2 44.9 0.0 0.0 46.4 0319
9/25/22 63.2 1341 46.8 0658 53.7 24.4 1650 SE | 146 - 31.9 66 18 48.5 38.1 43.9 0.0 0.0 43.5 0702
9/24/22 60.4 1433 43.5 0238 51.0 21.1 1825 ESE | 122 4.4 25.0 50 26 46.5 34.4 40.3 0.0 0.0 38.2 0238
9/23/22 58.5 1359 37.5 0616 46.8 15.6 1743 SE | 132 - 22.1 61 16 42.9 32.4 37.3 0.0 0.0 34.5 0109
9/22/22 54.0 1507 33.3 0101 44.3 26.1 0308 SE | 136 4.8 16.9 84 15 40.2 28.4 34.8 0.0 0.0 24.0 0101
9/21/22 40.1 1220 31.2 0705 34.9 40.2 1549 SSE | 150 9.2 30.8 100 66 36.6 31.1 33.3 0.0 0.0 17.9 0625
9/20/22 38.4 1613 32.0 0727 35.0 31.5 0401 S | 176 5.9 33.6 100 69 37.1 31.9 34.4 0.0 0.0 19.7 0401
9/19/22 46.8 1435 33.0 0349 38.3 25.4 2023 SSE | 154 5.2 30.1 98 57 40.8 30.8 35.0 0.0 0.0 22.9 0717
9/18/22 39.1 1201 31.9 0650 34.7 28.5 0831 SSW | 198 6.4 27.1 99 61 34.7 29.3 31.9 0.0 0.0 19.9 0831
9/17/22 46.6 1306 33.7 0052 40.6 42.7 1455 SSE | 148 11.7 22.4 98 21 37.7 30.5 34.2 0.0 0.0 20.0 0024
9/16/22 55.4 1216 40.1 0511 45.9 28.2 1544 S | 175 6.9 20.8 63 14 42.1 31.6 36.7 0.0 0.0 32.9 0052
9/15/22 51.0 1321 40.3 0647 45.5 25.1 1638 SE | 125 5.7 19.4 85 12 40.8 30.7 36.2 0.0 0.0 33.0 2046
9/14/22 48.4 1221 37.8 0637 42.6 29.1 1501 SSE | 162 6.4 31.5 82 46 42.4 33.3 38.0 0.0 0.0 28.5 0651
9/13/22 45.6 1545 40.4 2123 42.7 41.8 1701 SSE | 157 18.3 37.8 100 54 44.0 34.8 40.8 0.0 0.0 29.7 0714
9/12/22 59.6 1238 43.0 0040 48.6 22.3 1333 SSE | 159 6.1 41.2 97 46 49.6 42.3 45.2 0.0 0.0 34.6 0051
9/11/22 57.4 1446 46.6 2255 51.0 14.8 1403 N | 9 3.0 39.7 87 40 50.8 43.2 45.8 0.0 0.0 43.3 0024
9/10/22 59.4 1210 42.3 1942 51.4 25.8 1534 NNW | 347 4.6 39.6 100 32 52.8 42.2 46.0 0.0 0.0 36.2 1952
9/9/22 68.8 1450 55.5 0045 60.3 23.3 1716 SE | 143 5.6 31.4 48 20 51.4 44.1 46.5 0.0 0.0 - -
9/8/22 72.9 1407 56.4 2038 61.4 30.1 1852 S | 189 5.3 31.7 42 20 51.1 44.5 47.1 0.0 0.0 - -
9/7/22 73.8 1430 56.4 1926 63.4 35.2 1826 SSW | 213 5.7 32.3 49 20 52.6 45.1 48.0 0.0 0.0 - -
9/6/22 74.4 1451 58.6 0217 65.4 23.6 1636 SSE | 163 5.6 31.4 43 16 55.6 44.7 48.6 0.0 0.0 - -
9/5/22 72.0 1303 59.4 0532 64.5 21.4 1414 N | 4 5.3 30.8 38 15 51.6 45.4 48.1 0.0 0.0 - -
9/4/22 71.1 1207 60.6 0154 64.8 19.5 1640 SE | 138 5.2 33.6 41 22 52.6 46.2 49.1 0.0 0.0 - -
9/3/22 72.7 1232 60.0 0333 65.0 32.0 1524 SE | 137 9.0 29.7 33 20 51.2 45.4 47.8 0.0 0.0 - -
9/2/22 71.5 1413 57.1 0626 64.0 29.4 1524 SE | 140 9.0 28.4 35 19 49.8 43.6 47.0 0.0 0.0 - -
9/1/22 71.4 1429 57.0 0730 59.7 23.6 1916 NE | 37 6.5 30.5 36 20 50.4 45.5 46.0 0.0 0.0 -58.4 1246
Max 74.4 - 60.6 - 65.4 128.5 - - 61.0 41.2 100 100 55.6 46.2 49.1 24.0 24.0 46.4 -
Avg - - - - 31.9 - - - 17.9 13.9 - - - - 26.3 - 13.0 - -
Min 10.8 - 0.0 - 5.3 14.8 - - 3.0 -14.5 23 3 10.6 0.0 4.5 0.0 0.0 -58.4 -
Total - - - - - - - - - - - - - - - - 1,986.2 - -